Flight Track Log - Related Links

Times and Time Zones

All times are in EDT time to prevent confusion due to time zone crossing. See the N745VJ flight status page for this flight to view local times or setup timezone preferences in your user account.

Time Position Orientation Groundspeed Altitude Reporting Facility
EDT Latitude Longitude Course Direction KTS MPH feet Rate Location/Type
Fri 07:50:20 AM 35.2306 -80.9392 72° East 157 181 1,600  Level Atlanta Center
Fri 07:50:44 AM 35.2472 -80.9411 355° North 152 175 2,600 2,118 Climbing Atlanta Center
Fri 07:51:45 AM 35.2906 -80.9167 25° Northeast 198 228 4,600 1,871 Climbing Atlanta Center
Fri 07:52:00 AM 35.1000 -80.6553 90° East  Level FlightAware Approximate
Fri 07:52:17 AM 35.3061 -80.8728 67° East 249 287 5,500  Level Atlanta Center
Fri 07:52:46 AM 35.3131 -80.8242 80° East 291 335 7,100 2,900 Climbing Atlanta Center
Fri 07:53:00 AM 35.1716 -80.5856 29° Northeast  Level FlightAware Approximate
Fri 07:53:17 AM 35.3183 -80.7808 81° East 290 334 8,400  Level Atlanta Center
Fri 07:54:00 AM 35.2581 -80.5252 30° Northeast  Level FlightAware Approximate
Fri 07:54:17 AM 35.3367 -80.6858 77° East 332 382 11,000  Level Atlanta Center
Fri 07:55:00 AM 35.3338 -80.4650 72° East  Level FlightAware Approximate
Fri 07:55:17 AM 35.3561 -80.5653 79° East 348 400 13,400  Level Atlanta Center
Fri 07:56:17 AM 35.3797 -80.4394 77° East 369 425 16,100 2,357 Climbing Atlanta Center
Fri 07:58:05 AM 35.4211 -80.1850 79° East 399 459 20,000 1,976 Climbing Washington Center
Fri 07:59:07 AM 35.4575 -80.0469 72° East 412 474 21,700 1,800 Climbing Washington Center
Fri 08:00:05 AM 35.4964 -79.9011 72° East 417 480 23,600 1,900 Climbing Washington Center
Fri 08:01:07 AM 35.5328 -79.7525 73° East 434 499 25,500 1,700 Climbing Washington Center
Fri 08:02:05 AM 35.5714 -79.5986 73° East 453 521 27,000 1,613 Climbing Washington Center
Fri 08:03:06 AM 35.6164 -79.4372 71° East 481 554 28,700 1,475 Climbing Washington Center
Fri 08:04:07 AM 35.6689 -79.2942 66° East 481 554 30,000 1,361 Climbing Washington Center
Fri 08:05:05 AM 35.7300 -79.1436 63° Northeast 475 547 31,400 1,475 Climbing Washington Center
Fri 08:06:05 AM 35.7906 -78.9978 63° Northeast 475 547 32,900 1,613 Climbing Washington Center
Fri 08:07:04 AM 35.8489 -78.8464 65° Northeast 480 552 34,600 1,240 Climbing Washington Center
Fri 08:08:06 AM 35.8867 -78.6864 74° East 480 552 35,400 976 Climbing Washington Center
Fri 08:09:07 AM 35.9036 -78.5103 83° East 493 567 36,600 1,091 Climbing Washington Center
Fri 08:10:07 AM 35.9200 -78.3389 83° East 498 573 37,600 712 Climbing Washington Center
Fri 08:11:05 AM 35.9336 -78.2008 83° East 503 579 38,000 504 Climbing Washington Center
Fri 08:12:06 AM 35.9525 -77.9911 84° East 503 579 38,600 492 Climbing Washington Center
Fri 08:13:07 AM 35.9728 -77.8172 82° East 503 579 39,000 198 Climbing Washington Center
Fri 08:14:07 AM 36.0194 -77.6567 70° East 493 567 39,000  Level Washington Center
Fri 08:15:04 AM 36.0967 -77.5200 55° Northeast 487 560 39,000  Level Washington Center
Fri 08:16:07 AM 36.1633 -77.4006 55° Northeast 476 548 39,000  Level Washington Center
Fri 08:17:05 AM 36.2444 -77.2711 52° Northeast 471 542 39,000  Level Washington Center
Fri 08:18:05 AM 36.3256 -77.1414 52° Northeast 471 542 39,000 -50 Level Washington Center
Fri 08:19:06 AM 36.4269 -77.0428 38° Northeast 459 528 38,900  Descending Washington Center
Fri 08:20:07 AM 36.5261 -76.9464 38° Northeast 454 522 39,000 50 Climbing Washington Center
Fri 08:21:05 AM 36.6272 -76.8497 37° Northeast 454 522 39,000  Level Washington Center
Fri 08:22:06 AM 36.7306 -76.7528 37° Northeast 454 522 39,000  Level Washington Center
Fri 08:23:06 AM 36.8336 -76.6533 38° Northeast 460 529 39,000  Level Washington Center
Fri 08:24:07 AM 36.9325 -76.5586 37° Northeast 460 529 39,000  Level Washington Center
Fri 08:25:05 AM 37.0458 -76.4506 37° Northeast 465 535 39,000  Level Washington Center
Fri 08:26:06 AM 37.1489 -76.3500 38° Northeast 465 535 39,000  Level Washington Center
Fri 08:27:07 AM 37.2494 -76.2547 37° Northeast 465 535 39,000  Level Washington Center
Fri 08:28:05 AM 37.3522 -76.1561 37° Northeast 465 535 39,000  Level Washington Center
Fri 08:29:06 AM 37.4547 -76.0628 36° Northeast 460 529 39,000 -50 Level Washington Center
Fri 08:30:06 AM 37.5553 -75.9639 38° Northeast 460 529 38,900  Descending Washington Center
Fri 08:31:07 AM 37.6578 -75.8647 37° Northeast 460 529 39,000  Climbing Washington Center
Fri 08:32:05 AM 37.7600 -75.7653 38° Northeast 460 529 38,900  Descending Washington Center
Fri 08:33:06 AM 37.8625 -75.6628 38° Northeast 460 529 39,000 49 Climbing Washington Center
Fri 08:34:07 AM 37.9644 -75.5603 38° Northeast 460 529 39,000  Level Washington Center
Fri 08:35:05 AM 38.0689 -75.4653 36° Northeast 460 529 39,000  Level Washington Center
Fri 08:36:06 AM 38.1856 -75.3911 27° Northeast 455 524 39,000  Level Washington Center
Fri 08:37:06 AM 38.2958 -75.3167 28° Northeast 455 524 39,000 -248 Level Washington Center
Fri 08:38:07 AM 38.4103 -75.2392 28° Northeast 450 518 38,500 -857 Descending Washington Center
Fri 08:39:05 AM 38.5247 -75.1697 25° Northeast 450 518 37,300 -1,765 Descending Washington Center
Fri 08:40:06 AM 38.6350 -75.1025 25° Northeast 445 512 35,000 -2,361 Descending Washington Center
Fri 08:41:07 AM 38.7472 -75.0272 28° Northeast 445 512 32,500 -1,966 Descending Washington Center
Fri 08:42:05 AM 38.8531 -74.9600 26° Northeast 445 512 31,100 -1,475 Descending Washington Center
Fri 08:43:05 AM 38.9633 -74.8922 26° Northeast 440 506 29,600 -1,636 Descending Washington Center
Fri 08:44:06 AM 39.0711 -74.8164 29° Northeast 435 501 27,800 -1,785 Descending Washington Center
Fri 08:45:06 AM 39.1644 -74.7297 36° Northeast 429 494 26,000 -1,785 Descending Washington Center
Fri 08:46:07 AM 39.2511 -74.6347 40° Northeast 424 488 24,200 -1,762 Descending Washington Center
Fri 08:47:29 AM 39.3706 -74.5092 39° Northeast 420 483 21,800 -1,690 Descending New York Center
Fri 08:48:29 AM 39.4547 -74.4167 40° Northeast 385 443 20,200 -1,686 Descending New York Center
Fri 08:49:30 AM 39.5369 -74.3242 41° Northeast 380 437 18,400 -1,109 Descending New York Center
Fri 08:50:28 AM 39.6189 -74.2339 40° Northeast 380 437 18,000 -661 Descending New York Center
Fri 08:51:28 AM 39.6964 -74.1486 40° Northeast 375 432 17,100 -1,587 Descending New York Center
Fri 08:52:29 AM 39.7650 -74.0764 39° Northeast 358 412 14,800 -1,721 Descending New York Center
Fri 08:53:30 AM 39.8467 -73.9883 40° Northeast 347 399 13,600 -1,563 Descending New York Center
Fri 08:54:28 AM 39.9256 -73.9297 30° Northeast 331 381 11,700 -1,300 Descending New York Center
Fri 08:55:30 AM 40.0042 -73.8736 29° Northeast 320 368 11,000 -900 Descending New York Center
Fri 08:56:28 AM 40.0658 -73.8222 33° Northeast 302 348 9,900 -1,485 Descending New York Center
Fri 08:57:11 AM 40.1333 -73.8000 14° North 284 327 8,500 -1,806 Descending New York TRACON
Fri 08:58:11 AM 40.2000 -73.8167 349° North 277 319 6,800 -1,600 Descending New York TRACON
Fri 08:59:11 AM 40.2833 -73.8333 351° North 270 311 5,300 -1,474 Descending New York TRACON
Fri 09:00:05 AM 40.3333 -73.8333 360° North 258 297 4,000 -1,632 Descending New York TRACON
Fri 09:01:05 AM 40.4167 -73.8333 360° North 248 285 2,200 -1,000 Descending New York TRACON
Fri 09:02:05 AM 40.4667 -73.8333 360° North 209 241 2,000 -200 Descending New York TRACON

Login

Don't have an account? Register now (free) for customized features, flight alerts, and more!